Time;durP1;ratioP1;P1;durP2;ratioP2;P2;SDS_P1;SDS_P2;PMS_P1;PMS_P2;Temp;Humidity;BMP_temperature;BMP_pressure;BME280_temperature;BME280_humidity;BME280_pressure;Samples;Min_cycle;Max_cycle;Signal;HPM_P1;HPM_P2
2022/07/27 00:04:31;;;;;;;3.58;0.80;;;;;;;16.93;100.00;98440.44;15286501;19;20015;-65
2022/07/27 00:09:36;;;;;;;1.58;0.52;;;;;;;16.86;100.00;98440.41;15283155;19;20551;-64
2022/07/27 00:20:34;;;;;;;1.67;0.80;;;;;;;16.70;100.00;98435.28;15287455;19;20003;-63
2022/07/27 00:25:39;;;;;;;2.50;0.50;;;;;;;16.71;100.00;98428.81;15280223;19;20019;-63
2022/07/27 00:30:44;;;;;;;3.25;0.70;;;;;;;16.67;100.00;98430.25;15286851;19;20010;-63
2022/07/27 00:35:52;;;;;;;1.77;0.60;;;;;;;16.63;100.00;98419.78;15285623;19;20010;-63
2022/07/27 00:40:57;;;;;;;1.73;0.63;;;;;;;16.72;100.00;98404.13;15282405;19;20014;-62
2022/07/27 00:46:02;;;;;;;2.10;0.73;;;;;;;16.68;100.00;98407.44;15284079;19;20014;-63
2022/07/27 00:51:12;;;;;;;4.07;1.13;;;;;;;16.66;100.00;98406.81;15287571;19;20175;-63
2022/07/27 00:56:18;;;;;;;4.13;0.88;;;;;;;16.60;100.00;98408.44;15279875;19;20758;-63
2022/07/27 01:01:22;;;;;;;2.17;0.80;;;;;;;16.61;100.00;98410.97;15291413;19;20049;-63
2022/07/27 01:06:30;;;;;;;4.00;0.90;;;;;;;16.58;100.00;98418.72;15286848;19;20081;-63
2022/07/27 01:11:35;;;;;;;3.00;0.90;;;;;;;16.52;100.00;98417.63;15289346;19;20018;-63
2022/07/27 01:16:40;;;;;;;3.00;0.73;;;;;;;16.43;100.00;98429.69;15279797;19;20027;-63
2022/07/27 01:21:48;;;;;;;2.22;0.73;;;;;;;16.42;100.00;98428.84;15287211;19;20014;-63
2022/07/27 01:26:53;;;;;;;1.60;0.65;;;;;;;16.32;100.00;98412.88;15287511;19;20010;-63
2022/07/27 01:31:59;;;;;;;2.97;0.90;;;;;;;16.30;100.00;98409.53;15279431;19;20017;-63
2022/07/27 01:37:07;;;;;;;2.03;0.88;;;;;;;16.34;100.00;98415.41;15286641;19;20586;-63
2022/07/27 01:42:15;;;;;;;2.72;0.70;;;;;;;16.26;100.00;98419.13;15285951;19;20018;-63
2022/07/27 01:47:20;;;;;;;3.35;1.00;;;;;;;16.21;100.00;98420.75;15281367;19;20011;-63
2022/07/27 01:52:27;;;;;;;3.35;0.85;;;;;;;16.18;100.00;98419.25;15283586;19;20022;-63
2022/07/27 01:57:32;;;;;;;2.65;0.77;;;;;;;16.12;100.00;98422.78;15284277;19;20035;-63
2022/07/27 02:02:37;;;;;;;2.22;0.90;;;;;;;16.12;100.00;98411.91;15277958;19;20014;-61
2022/07/27 02:07:45;;;;;;;3.45;0.90;;;;;;;15.98;100.00;98411.81;15283817;19;20011;-63
2022/07/27 02:12:50;;;;;;;4.28;0.90;;;;;;;15.95;100.00;98412.19;15278813;19;20031;-63
2022/07/27 02:17:55;;;;;;;3.38;1.20;;;;;;;15.86;100.00;98418.78;15279106;19;20328;-63
2022/07/27 02:23:03;;;;;;;4.82;1.00;;;;;;;15.88;100.00;98422.16;15277518;19;20018;-63
2022/07/27 02:28:08;;;;;;;3.15;1.10;;;;;;;15.85;100.00;98404.38;15284144;19;20021;-63
2022/07/27 02:33:13;;;;;;;2.97;0.95;;;;;;;15.74;100.00;98414.91;15272045;19;20039;-63
2022/07/27 02:38:22;;;;;;;4.25;1.10;;;;;;;15.76;100.00;98416.38;15279585;19;20139;-63
2022/07/27 02:43:27;;;;;;;4.72;0.85;;;;;;;15.66;100.00;98414.00;15280054;19;20025;-63
2022/07/27 02:48:33;;;;;;;4.45;1.10;;;;;;;15.64;100.00;98410.63;15278518;19;20463;-63
2022/07/27 02:53:40;;;;;;;3.63;1.20;;;;;;;15.56;100.00;98411.59;15271039;19;20483;-63
2022/07/27 02:58:46;;;;;;;3.35;1.20;;;;;;;15.57;100.00;98412.47;15279160;19;20026;-64
2022/07/27 03:03:51;;;;;;;4.93;1.10;;;;;;;15.46;100.00;98419.22;15277309;19;20484;-63
2022/07/27 03:08:58;;;;;;;4.30;1.10;;;;;;;15.40;100.00;98415.41;15269837;19;20642;-63
2022/07/27 03:14:03;;;;;;;4.45;1.20;;;;;;;15.34;100.00;98410.75;15277222;19;20021;-62
2022/07/27 03:19:08;;;;;;;2.83;0.90;;;;;;;15.29;100.00;98415.09;15273196;19;20026;-63
2022/07/27 03:24:16;;;;;;;3.17;0.93;;;;;;;15.29;100.00;98396.09;15269848;19;20010;-63
2022/07/27 03:29:21;;;;;;;4.10;1.05;;;;;;;15.24;100.00;98397.50;15274635;19;20018;-63
2022/07/27 03:34:26;;;;;;;3.55;1.15;;;;;;;15.11;100.00;98408.19;15272494;19;20619;-64
2022/07/27 03:39:34;;;;;;;4.00;0.98;;;;;;;15.11;100.00;98421.78;15272348;19;20018;-63
2022/07/27 03:44:39;;;;;;;3.78;1.10;;;;;;;15.03;100.00;98425.44;15273398;19;20011;-63
2022/07/27 03:49:44;;;;;;;3.90;1.10;;;;;;;14.98;100.00;98421.59;15276968;19;20010;-64
2022/07/27 03:54:51;;;;;;;4.40;1.15;;;;;;;14.90;100.00;98431.53;15270077;19;20787;-63
2022/07/27 03:59:56;;;;;;;5.25;1.30;;;;;;;14.90;100.00;98425.25;15275517;19;20039;-63
2022/07/27 04:05:01;;;;;;;4.07;1.40;;;;;;;14.84;100.00;98436.88;15273090;19;20043;-64
2022/07/27 04:10:11;;;;;;;5.15;1.30;;;;;;;14.87;100.00;98436.50;15270061;19;20011;-64
2022/07/27 04:15:18;;;;;;;4.73;1.13;;;;;;;14.84;100.00;98437.72;15274598;19;20018;-63
2022/07/27 04:20:23;;;;;;;4.60;1.02;;;;;;;14.84;100.00;98450.44;15263577;19;20299;-64
2022/07/27 04:25:31;;;;;;;3.58;1.20;;;;;;;14.88;100.00;98454.44;15277198;19;20010;-64
2022/07/27 04:30:36;;;;;;;3.50;1.00;;;;;;;14.76;100.00;98448.66;15278972;19;20014;-63
2022/07/27 04:35:41;;;;;;;4.68;1.02;;;;;;;14.78;100.00;98439.28;15277867;19;20106;-64
2022/07/27 04:40:49;;;;;;;5.28;1.50;;;;;;;14.82;100.00;98450.59;15294123;19;20059;-64
2022/07/27 04:45:59;;;;;;;4.22;1.10;;;;;;;14.84;100.00;98453.97;15282519;19;20345;-64
2022/07/27 04:51:05;;;;;;;4.88;1.15;;;;;;;14.85;100.00;98444.00;15292304;19;20022;-65
2022/07/27 04:56:13;;;;;;;6.15;1.17;;;;;;;14.90;100.00;98446.97;15288618;19;20006;-65
2022/07/27 05:01:22;;;;;;;4.05;1.10;;;;;;;14.91;100.00;98463.06;15290945;19;20090;-65
2022/07/27 05:06:27;;;;;;;4.63;1.00;;;;;;;14.97;100.00;98466.91;15288699;19;20014;-64
2022/07/27 05:11:34;;;;;;;4.40;1.17;;;;;;;15.01;100.00;98468.19;15287870;19;20480;-63
2022/07/27 05:16:41;;;;;;;6.13;1.30;;;;;;;15.02;100.00;98478.00;15281293;19;20342;-64
2022/07/27 05:21:46;;;;;;;5.85;1.27;;;;;;;15.01;100.00;98481.75;15286697;19;20018;-62
2022/07/27 05:26:54;;;;;;;4.47;1.00;;;;;;;15.02;100.00;98474.47;15286734;19;20458;-63
2022/07/27 05:31:59;;;;;;;6.45;1.20;;;;;;;15.03;100.00;98468.00;15282885;19;20010;-63
2022/07/27 05:37:04;;;;;;;3.55;1.00;;;;;;;15.07;100.00;98486.44;15285518;19;20370;-63
2022/07/27 05:42:12;;;;;;;3.83;1.08;;;;;;;15.08;100.00;98504.41;15286349;19;20022;-61
2022/07/27 05:47:18;;;;;;;4.25;0.95;;;;;;;15.08;100.00;98504.41;15282513;19;20367;-63
2022/07/27 05:52:22;;;;;;;4.53;1.05;;;;;;;15.09;100.00;98514.22;15286190;19;20362;-61
2022/07/27 05:57:30;;;;;;;2.70;1.00;;;;;;;15.09;100.00;98514.22;15283739;19;20018;-60
2022/07/27 06:02:35;;;;;;;6.07;1.20;;;;;;;15.13;100.00;98528.25;15287305;19;20011;-62
2022/07/27 06:13:01;;;;;;;4.00;1.20;;;;;;;15.23;100.00;98526.09;15285087;19;20022;-62
2022/07/27 06:18:12;;;;;;;3.28;0.90;;;;;;;15.23;100.00;98530.66;15285291;19;20011;-63
2022/07/27 06:23:17;;;;;;;3.35;1.20;;;;;;;15.32;100.00;98528.69;15282240;19;20010;-62
2022/07/27 06:28:25;;;;;;;3.85;1.00;;;;;;;15.38;100.00;98525.22;15282420;19;20026;-65
2022/07/27 06:33:30;;;;;;;3.75;1.20;;;;;;;15.45;100.00;98525.31;15282975;19;20031;-64
2022/07/27 06:38:36;;;;;;;5.43;1.13;;;;;;;15.56;100.00;98538.41;15280912;19;20010;-64
2022/07/27 06:43:44;;;;;;;5.45;1.15;;;;;;;15.62;100.00;98537.63;15284607;19;20381;-63
2022/07/27 06:48:48;;;;;;;3.15;1.00;;;;;;;15.77;100.00;98537.56;15284139;19;20026;-64
2022/07/27 06:53:54;;;;;;;3.92;0.90;;;;;;;15.83;100.00;98546.81;15271887;19;20365;-64
2022/07/27 06:59:02;;;;;;;2.95;0.93;;;;;;;15.89;100.00;98542.53;15282288;19;20027;-63
2022/07/27 07:04:07;;;;;;;3.42;0.90;;;;;;;15.94;100.00;98540.91;15281761;19;20022;-63
2022/07/27 07:09:12;;;;;;;2.97;0.70;;;;;;;16.14;100.00;98535.69;15279336;19;20026;-63
2022/07/27 07:14:21;;;;;;;3.33;0.77;;;;;;;16.28;100.00;98533.94;15280820;19;20021;-64
2022/07/27 07:19:26;;;;;;;1.40;0.60;;;;;;;16.30;100.00;98537.28;15279886;19;20161;-63
2022/07/27 07:24:32;;;;;;;3.13;0.80;;;;;;;16.28;100.00;98544.81;15272806;19;20022;-65
2022/07/27 07:29:40;;;;;;;4.53;0.80;;;;;;;16.31;100.00;98547.13;15284816;19;20559;-63
2022/07/27 07:34:45;;;;;;;5.45;0.82;;;;;;;16.33;100.00;98541.53;15286013;19;20366;-65
2022/07/27 07:39:50;;;;;;;5.60;0.77;;;;;;;16.44;100.00;98545.56;15282511;19;20486;-64
2022/07/27 07:44:57;;;;;;;3.17;0.70;;;;;;;16.32;100.00;98551.53;15289075;19;20392;-63
2022/07/27 07:50:02;;;;;;;2.67;0.70;;;;;;;16.38;100.00;98547.19;15285109;19;20014;-61
2022/07/27 07:55:09;;;;;;;3.33;0.90;;;;;;;16.51;100.00;98551.91;15282793;19;20595;-60
2022/07/27 08:00:18;;;;;;;2.80;0.77;;;;;;;16.67;100.00;98549.94;15285467;19;20119;-60
2022/07/27 08:05:24;;;;;;;3.88;1.00;;;;;;;16.75;100.00;98542.47;15278334;19;20026;-61
2022/07/27 08:10:29;;;;;;;2.70;0.90;;;;;;;16.86;100.00;98546.53;15280934;19;20010;-63
2022/07/27 08:15:37;;;;;;;3.33;0.88;;;;;;;16.89;100.00;98557.00;15289117;19;20018;-63
2022/07/27 08:20:42;;;;;;;5.07;0.82;;;;;;;17.08;100.00;98558.19;15298177;19;20018;-64
2022/07/27 08:25:49;;;;;;;3.80;0.90;;;;;;;17.15;100.00;98554.69;15290237;19;20018;-60
2022/07/27 08:31:01;;;;;;;3.23;0.90;;;;;;;17.18;100.00;98573.31;15290137;19;20019;-63
2022/07/27 08:36:19;;;;;;;4.25;1.08;;;;;;;17.31;100.00;98578.03;15295112;19;20011;-63
2022/07/27 08:41:28;;;;;;;5.50;1.05;;;;;;;17.39;100.00;98578.72;15297435;19;20022;-63
2022/07/27 08:46:39;;;;;;;2.45;0.90;;;;;;;17.56;100.00;98587.38;15287169;19;20042;-63
2022/07/27 08:51:46;;;;;;;2.60;0.90;;;;;;;17.72;100.00;98574.41;15296020;19;20018;-63
2022/07/27 08:56:51;;;;;;;3.72;0.98;;;;;;;17.65;100.00;98571.66;15295645;19;20015;-62
2022/07/27 09:01:59;;;;;;;3.72;0.80;;;;;;;17.35;100.00;98579.28;15288218;19;20463;-62
2022/07/27 09:07:07;;;;;;;1.93;0.80;;;;;;;17.51;100.00;98567.22;15291086;19;20028;-62
2022/07/27 09:12:12;;;;;;;4.03;0.95;;;;;;;17.78;100.00;98561.88;15287480;19;20372;-63
2022/07/27 09:17:28;;;;;;;3.72;0.90;;;;;;;17.93;100.00;98561.72;15283851;19;20011;-63
2022/07/27 09:22:54;;;;;;;4.50;1.00;;;;;;;18.47;100.00;98552.59;15284584;19;20015;-65
2022/07/27 09:28:00;;;;;;;3.80;0.80;;;;;;;18.14;100.00;98560.72;15285113;19;20015;-60
2022/07/27 09:33:09;;;;;;;3.47;1.05;;;;;;;18.09;100.00;98553.19;15278795;19;20038;-63
2022/07/27 09:38:21;;;;;;;5.43;0.90;;;;;;;18.34;100.00;98549.84;15286092;19;20025;-60
2022/07/27 09:43:27;;;;;;;3.78;0.88;;;;;;;18.87;100.00;98550.91;15284772;19;20497;-62
2022/07/27 09:48:55;;;;;;;7.35;1.00;;;;;;;19.12;100.00;98542.91;15281139;19;20078;-62
2022/07/27 09:54:07;;;;;;;7.03;1.20;;;;;;;19.08;91.42;98545.22;15280207;19;20035;-62
2022/07/27 09:59:20;;;;;;;3.67;1.02;;;;;;;19.07;94.23;98548.16;15283245;19;20012;-63
2022/07/27 10:04:28;;;;;;;3.55;1.00;;;;;;;19.38;93.24;98543.88;15290551;19;20599;-62
2022/07/27 10:09:33;;;;;;;4.30;0.80;;;;;;;19.66;90.76;98542.69;15282966;19;20100;-59
2022/07/27 10:14:39;;;;;;;5.38;1.00;;;;;;;19.77;90.21;98546.66;15281400;19;20010;-62
2022/07/27 10:19:49;;;;;;;3.55;0.90;;;;;;;19.71;85.55;98551.09;15280611;19;20022;-62
2022/07/27 10:25:01;;;;;;;3.67;0.90;;;;;;;19.96;84.69;98544.91;15276384;19;20364;-63
2022/07/27 10:30:08;;;;;;;4.70;1.00;;;;;;;19.98;82.40;98546.34;15280148;19;20022;-63
2022/07/27 10:35:37;;;;;;;3.78;0.82;;;;;;;19.62;74.47;98549.66;15278462;19;20118;-63
2022/07/27 10:40:43;;;;;;;2.15;0.80;;;;;;;19.61;78.65;98557.00;15274575;19;20019;-63
2022/07/27 10:45:50;;;;;;;2.90;0.73;;;;;;;19.43;77.54;98556.88;15280930;19;20017;-59
2022/07/27 10:51:11;;;;;;;1.35;0.60;;;;;;;19.87;76.34;98552.50;15282435;19;20018;-62
2022/07/27 10:56:46;;;;;;;2.25;0.93;;;;;;;19.84;68.56;98552.91;15276368;19;20468;-60
2022/07/27 11:01:58;;;;;;;1.52;0.60;;;;;;;19.42;67.29;98557.94;15275625;19;20359;-64
2022/07/27 11:07:05;;;;;;;2.22;0.73;;;;;;;19.41;70.75;98548.88;15278688;19;20028;-61
2022/07/27 11:12:31;;;;;;;2.88;0.60;;;;;;;19.47;70.37;98547.19;15274632;19;20362;-60
2022/07/27 11:17:37;;;;;;;1.05;0.60;;;;;;;19.73;70.08;98551.72;15280060;19;20046;-64
2022/07/27 11:23:19;;;;;;;3.30;0.80;;;;;;;19.57;69.11;98553.06;15276453;19;20081;-62
2022/07/27 11:28:45;;;;;;;1.58;0.70;;;;;;;19.78;72.67;98548.34;15273614;19;20033;-62
2022/07/27 11:33:58;;;;;;;4.28;0.80;;;;;;;19.89;70.15;98544.09;15278680;19;20018;-62
2022/07/27 11:39:08;;;;;;;5.63;0.90;;;;;;;19.92;70.98;98536.31;15277633;19;20820;-62
2022/07/27 11:44:18;;;;;;;2.08;0.70;;;;;;;20.09;67.88;98538.50;15270991;19;20127;-64
2022/07/27 11:49:27;;;;;;;3.67;0.80;;;;;;;20.30;66.06;98524.44;15291574;19;20353;-64
2022/07/27 11:54:37;;;;;;;2.50;0.80;;;;;;;20.27;65.06;98537.75;15289377;19;20393;-63
2022/07/27 11:59:43;;;;;;;2.22;0.90;;;;;;;19.94;65.97;98539.63;15288023;19;20365;-63
2022/07/27 12:04:49;;;;;;;2.00;0.70;;;;;;;20.22;66.33;98543.88;15290603;19;20644;-63
2022/07/27 12:10:00;;;;;;;1.52;0.68;;;;;;;20.13;68.44;98535.09;15293654;19;20022;-64
2022/07/27 12:15:16;;;;;;;2.20;0.60;;;;;;;20.22;66.54;98534.84;15280860;19;20469;-63
2022/07/27 12:20:41;;;;;;;2.50;0.75;;;;;;;19.99;65.67;98530.78;15288851;19;20022;-63
2022/07/27 12:25:49;;;;;;;2.72;0.95;;;;;;;20.09;67.93;98527.56;15289310;19;20002;-63
2022/07/27 12:30:54;;;;;;;3.63;0.70;;;;;;;20.37;68.86;98518.09;15285921;19;20363;-64
2022/07/27 12:36:01;;;;;;;1.77;0.70;;;;;;;20.57;67.77;98528.91;15287154;19;20011;-62
2022/07/27 12:41:09;;;;;;;2.13;0.80;;;;;;;20.44;66.78;98516.16;15288148;19;20019;-63
2022/07/27 12:46:15;;;;;;;1.83;0.60;;;;;;;21.17;66.73;98505.59;15278494;19;20269;-64
2022/07/27 12:51:23;;;;;;;2.55;0.60;;;;;;;;;;15288851;19;20018;-64
2022/07/27 12:56:31;;;;;;;2.05;0.70;;;;;;;21.36;63.89;98495.44;15282798;19;20026;-64
2022/07/27 13:01:36;;;;;;;2.63;0.82;;;;;;;21.58;61.73;98497.69;15286267;19;20368;-64
2022/07/27 13:06:41;;;;;;;2.15;0.77;;;;;;;21.65;61.27;98495.72;15277577;19;20010;-64
2022/07/27 13:11:49;;;;;;;3.88;0.70;;;;;;;21.20;61.47;98495.00;15286813;19;20035;-63
2022/07/27 13:16:54;;;;;;;1.65;0.80;;;;;;;21.43;60.27;98500.81;15281998;19;20023;-63
2022/07/27 13:21:59;;;;;;;2.83;0.55;;;;;;;21.40;60.26;98504.88;15275762;19;20559;-64
2022/07/27 13:27:07;;;;;;;3.10;0.68;;;;;;;21.48;60.96;98506.47;15286526;19;20560;-64
2022/07/27 13:32:12;;;;;;;3.05;0.70;;;;;;;21.66;62.47;98506.44;15286265;19;20010;-64
2022/07/27 13:37:22;;;;;;;4.10;0.70;;;;;;;22.04;61.86;98504.47;15278759;19;20400;-63
2022/07/27 13:42:30;;;;;;;4.78;0.70;;;;;;;22.24;59.79;98514.28;15285439;19;20015;-64
2022/07/27 13:47:34;;;;;;;2.45;0.60;;;;;;;22.14;59.90;98507.47;15284673;19;20039;-64
2022/07/27 13:52:39;;;;;;;2.88;0.60;;;;;;;21.99;58.57;98507.06;15276355;19;20043;-63
2022/07/27 13:57:48;;;;;;;3.00;0.90;;;;;;;21.90;57.94;98505.72;15277164;19;20018;-65
2022/07/27 14:02:53;;;;;;;1.95;0.70;;;;;;;21.90;58.82;98497.50;15281577;19;20025;-64
2022/07/27 14:07:58;;;;;;;5.85;0.70;;;;;;;21.70;58.55;98502.19;15275499;19;20090;-64
2022/07/27 14:13:10;;;;;;;3.55;0.60;;;;;;;21.88;59.22;98494.16;15281979;19;20385;-64
2022/07/27 14:18:15;;;;;;;2.13;0.80;;;;;;;21.83;57.40;98492.09;15281483;19;20022;-64
2022/07/27 14:23:20;;;;;;;2.88;0.60;;;;;;;21.77;59.83;98491.13;15275118;19;20046;-63
2022/07/27 14:28:29;;;;;;;4.93;1.08;;;;;;;21.62;57.68;98486.06;15280953;19;20018;-64
2022/07/27 14:33:34;;;;;;;2.20;0.77;;;;;;;21.50;57.08;98494.19;15282082;19;20022;-63
2022/07/27 14:38:43;;;;;;;1.92;0.70;;;;;;;21.48;58.85;98487.28;15279012;19;20006;-64
2022/07/27 14:43:50;;;;;;;2.97;0.80;;;;;;;21.49;57.02;98481.56;15271804;19;20662;-63
2022/07/27 14:48:55;;;;;;;3.17;0.80;;;;;;;21.50;58.31;98485.97;15279076;19;20021;-63
2022/07/27 14:54:10;;;;;;;3.83;0.73;;;;;;;21.45;57.23;98483.09;15275731;19;20031;-64
2022/07/27 14:59:18;;;;;;;1.08;0.50;;;;;;;21.86;56.80;98480.69;15276573;19;20034;-63
2022/07/27 15:04:23;;;;;;;2.92;0.75;;;;;;;21.74;55.80;98477.88;15278947;19;20019;-64
2022/07/27 15:09:29;;;;;;;2.97;0.70;;;;;;;21.97;56.47;98476.28;15278592;19;20018;-64
2022/07/27 15:14:38;;;;;;;1.25;0.70;;;;;;;22.14;55.06;98481.91;15273153;19;20010;-66
2022/07/27 15:19:43;;;;;;;1.95;0.60;;;;;;;22.14;54.95;98477.28;15274633;19;20026;-65
2022/07/27 15:24:48;;;;;;;2.45;0.65;;;;;;;22.09;53.85;98473.56;15277103;19;20010;-63
2022/07/27 15:29:56;;;;;;;4.22;0.68;;;;;;;22.16;53.26;98479.78;15269783;19;21273;-65
2022/07/27 15:35:01;;;;;;;3.08;0.80;;;;;;;21.71;52.33;98475.59;15278453;19;20018;-65
2022/07/27 15:45:28;;;;;;;3.35;0.50;;;;;;;21.54;51.54;98468.00;15272589;19;20019;-63
2022/07/27 15:50:33;;;;;;;2.35;0.50;;;;;;;21.66;52.91;98464.50;15275487;19;20349;-64
2022/07/27 15:55:39;;;;;;;4.20;0.57;;;;;;;21.61;53.23;98462.47;15272750;19;20015;-64
2022/07/27 16:00:48;;;;;;;3.83;0.65;;;;;;;22.36;52.29;98451.16;15268701;19;20031;-65
2022/07/27 16:05:53;;;;;;;4.93;0.50;;;;;;;23.21;48.51;98451.75;15271748;19;20440;-64
2022/07/27 16:10:59;;;;;;;2.45;0.40;;;;;;;23.39;48.44;98437.81;15275695;19;20424;-65
2022/07/27 16:21:26;;;;;;;1.77;0.50;;;;;;;23.21;47.44;98429.78;15270782;19;20459;-64
2022/07/27 16:26:31;;;;;;;2.25;0.40;;;;;;;23.43;46.47;98418.91;15270686;19;20025;-66
2022/07/27 16:31:39;;;;;;;3.80;0.40;;;;;;;23.40;44.32;98419.44;15268715;19;20048;-61
2022/07/27 16:36:44;;;;;;;2.65;0.43;;;;;;;23.70;44.88;98415.56;15282820;19;20701;-64
2022/07/27 16:41:50;;;;;;;1.00;0.40;;;;;;;23.48;43.34;98418.19;15290262;19;20476;-64
2022/07/27 16:46:58;;;;;;;5.32;0.60;;;;;;;23.56;45.04;98415.06;15289947;19;20007;-63
2022/07/27 16:52:03;;;;;;;2.35;0.40;;;;;;;23.56;44.98;98412.31;15282504;19;20434;-62
2022/07/27 16:57:09;;;;;;;1.45;0.47;;;;;;;23.63;43.95;98418.47;15283781;19;20046;-62
2022/07/27 17:02:17;;;;;;;1.02;0.30;;;;;;;23.46;43.25;98414.88;15287408;19;20022;-61
2022/07/27 17:07:23;;;;;;;1.77;0.30;;;;;;;23.81;42.77;98422.09;15280268;19;20473;-64
2022/07/27 17:12:28;;;;;;;5.95;0.50;;;;;;;24.27;43.36;98417.41;15284754;19;20019;-64
2022/07/27 17:17:39;;;;;;;2.63;0.43;;;;;;;24.68;42.29;98419.09;15280653;19;20098;-56
2022/07/27 17:22:44;;;;;;;2.22;0.40;;;;;;;24.05;41.21;98424.75;15269861;19;20035;-61
2022/07/27 17:27:50;;;;;;;2.95;0.47;;;;;;;24.30;41.77;98425.13;15285447;19;20017;-61
2022/07/27 17:32:58;;;;;;;5.45;0.50;;;;;;;24.27;39.47;98425.66;15284174;19;20468;-61
2022/07/27 17:38:04;;;;;;;2.30;0.47;;;;;;;24.21;40.49;98423.91;15274290;19;20078;-61
2022/07/27 17:43:12;;;;;;;1.00;0.40;;;;;;;24.41;40.03;98439.06;15281359;19;20533;-60
2022/07/27 17:48:22;;;;;;;0.70;0.32;;;;;;;23.90;40.16;98445.38;15284450;19;20014;-63
2022/07/27 17:53:28;;;;;;;;;;;;;;;24.08;42.20;98446.25;15280433;19;20016;-64
2022/07/27 17:58:32;;;;;;;1.20;0.50;;;;;;;24.11;43.19;98446.56;15280479;19;20328;-63
2022/07/27 18:03:40;;;;;;;1.60;0.70;;;;;;;24.05;43.75;98446.75;15286499;19;20014;-66
2022/07/27 18:08:46;;;;;;;1.88;0.60;;;;;;;24.12;44.27;98447.41;15283179;19;20029;-63
2022/07/27 18:13:51;;;;;;;3.53;0.60;;;;;;;23.94;44.79;98454.78;15284305;19;20035;-65
2022/07/27 18:18:59;;;;;;;2.22;0.60;;;;;;;23.87;44.72;98454.13;15278386;19;20025;-65
2022/07/27 18:24:06;;;;;;;7.50;0.65;;;;;;;23.61;44.60;98453.63;15280657;19;20030;-65
2022/07/27 18:29:14;;;;;;;5.28;0.65;;;;;;;23.30;45.89;98453.03;15274477;19;20021;-64
2022/07/27 18:34:23;;;;;;;3.63;0.60;;;;;;;22.96;46.49;98450.09;15280520;19;20101;-64
2022/07/27 18:39:28;;;;;;;8.38;0.60;;;;;;;22.73;46.11;98451.81;15281243;19;20790;-65
2022/07/27 18:44:38;;;;;;;5.75;0.60;;;;;;;22.49;47.02;98461.13;15270481;19;20062;-65
2022/07/27 18:49:45;;;;;;;3.15;0.60;;;;;;;22.06;48.11;98458.41;15277182;19;20566;-64
2022/07/27 18:54:51;;;;;;;5.35;0.93;;;;;;;21.70;48.47;98451.97;15274941;19;20018;-65
2022/07/27 18:59:56;;;;;;;6.10;0.70;;;;;;;21.36;49.56;98449.69;15271289;19;20700;-64
2022/07/27 19:05:04;;;;;;;6.13;0.90;;;;;;;20.96;49.96;98460.31;15277869;19;20029;-64
2022/07/27 19:10:11;;;;;;;9.15;0.90;;;;;;;20.68;50.94;98465.19;15278371;19;20030;-64
2022/07/27 19:15:16;;;;;;;5.53;0.88;;;;;;;20.40;51.69;98471.16;15268897;19;20368;-64
2022/07/27 19:20:24;;;;;;;5.70;0.80;;;;;;;20.15;52.24;98482.94;15274584;19;20082;-64
2022/07/27 19:25:32;;;;;;;7.72;0.75;;;;;;;19.88;53.31;98488.56;15276045;19;20014;-65
2022/07/27 19:30:37;;;;;;;5.22;0.75;;;;;;;19.56;53.38;98492.09;15273942;19;20014;-64
2022/07/27 19:35:45;;;;;;;7.63;0.80;;;;;;;19.30;54.03;98490.31;15274321;19;20010;-64
2022/07/27 19:40:50;;;;;;;4.03;0.75;;;;;;;19.11;54.99;98505.72;15276483;19;20006;-64
2022/07/27 19:45:55;;;;;;;2.63;0.70;;;;;;;18.91;55.83;98500.28;15269278;19;20014;-64
2022/07/27 19:51:03;;;;;;;3.63;0.77;;;;;;;18.70;56.65;98507.66;15276490;19;20013;-64
2022/07/27 19:56:11;;;;;;;3.17;0.90;;;;;;;18.58;56.71;98504.72;15272756;19;20014;-64
2022/07/27 20:01:16;;;;;;;7.07;0.90;;;;;;;18.55;56.85;98507.91;15274172;19;20344;-62
2022/07/27 20:06:24;;;;;;;3.00;0.73;;;;;;;18.50;56.49;98515.03;15268683;19;20039;-64
2022/07/27 20:11:30;;;;;;;8.68;0.80;;;;;;;18.43;56.91;98524.03;15289238;19;20613;-62
2022/07/27 20:16:37;;;;;;;2.15;0.80;;;;;;;18.30;57.31;98537.69;15280917;19;20010;-64
2022/07/27 20:21:45;;;;;;;4.50;0.90;;;;;;;18.01;59.20;98535.13;15281118;19;20047;-64
2022/07/27 20:26:50;;;;;;;4.20;0.65;;;;;;;17.79;60.04;98542.59;15284467;19;20025;-62
2022/07/27 20:31:55;;;;;;;5.03;0.80;;;;;;;17.64;60.49;98547.38;15288751;19;20355;-62
2022/07/27 20:37:02;;;;;;;2.70;0.70;;;;;;;17.49;61.13;98559.25;15282415;19;20374;-64
2022/07/27 20:42:07;;;;;;;3.53;0.80;;;;;;;17.27;62.97;98563.97;15286973;19;20030;-62
2022/07/27 20:47:13;;;;;;;5.10;0.90;;;;;;;17.13;64.01;98554.88;15287402;19;20027;-64
2022/07/27 20:52:21;;;;;;;4.32;0.77;;;;;;;17.04;64.39;98559.66;15278481;19;20480;-62
2022/07/27 20:57:26;;;;;;;6.47;0.75;;;;;;;16.93;64.05;98566.47;15284476;19;20388;-62
2022/07/27 21:02:32;;;;;;;6.40;0.80;;;;;;;16.87;64.34;98560.97;15286169;19;20007;-62
2022/07/27 21:07:39;;;;;;;3.55;0.80;;;;;;;16.75;65.11;98563.41;15279680;19;20010;-62
2022/07/27 21:12:45;;;;;;;2.92;0.60;;;;;;;16.62;67.09;98570.41;15286491;19;20032;-62
2022/07/27 21:17:51;;;;;;;3.60;0.70;;;;;;;16.44;67.89;98572.75;15258419;19;20007;-64
2022/07/27 21:28:19;;;;;;;3.20;0.70;;;;;;;16.42;67.29;98580.28;15282379;19;20002;-62
2022/07/27 21:33:28;;;;;;;2.15;0.70;;;;;;;16.40;67.95;98588.63;15284412;19;20003;-62
2022/07/27 21:38:36;;;;;;;7.00;0.82;;;;;;;16.43;67.83;98590.97;15279694;19;20129;-61
2022/07/27 21:43:41;;;;;;;2.92;0.65;;;;;;;16.39;68.43;98591.56;15280964;19;20025;-62
2022/07/27 21:48:47;;;;;;;3.88;0.60;;;;;;;16.32;69.51;98588.78;15282039;19;20015;-61
2022/07/27 21:53:55;;;;;;;3.80;0.80;;;;;;;16.19;71.21;98597.63;15275322;19;20345;-61
2022/07/27 21:59:00;;;;;;;5.38;0.80;;;;;;;16.11;73.12;98600.47;15278254;19;20010;-61
2022/07/27 22:04:05;;;;;;;2.70;0.80;;;;;;;16.06;74.49;98605.63;15281032;19;20043;-62
2022/07/27 22:09:13;;;;;;;3.55;0.70;;;;;;;16.00;75.76;98604.53;15280881;19;20094;-62
2022/07/27 22:14:18;;;;;;;4.25;0.70;;;;;;;15.96;75.66;98604.06;15276004;19;20371;-62
2022/07/27 22:19:23;;;;;;;6.53;0.80;;;;;;;15.86;76.96;98617.13;15276047;19;20096;-60
2022/07/27 22:24:31;;;;;;;5.18;0.73;;;;;;;15.75;79.64;98617.56;15280729;19;20014;-61
2022/07/27 22:29:36;;;;;;;7.03;1.00;;;;;;;15.59;84.24;98627.59;15271564;19;20021;-62
2022/07/27 22:34:41;;;;;;;3.72;0.70;;;;;;;15.60;83.43;98625.75;15279021;19;20007;-62
2022/07/27 22:39:49;;;;;;;2.50;0.70;;;;;;;15.51;85.93;98638.56;15275116;19;20030;-61
2022/07/27 22:44:54;;;;;;;1.02;0.50;;;;;;;15.28;89.74;98633.25;15274237;19;20022;-61
2022/07/27 22:49:59;;;;;;;6.47;0.70;;;;;;;15.09;92.87;98639.03;15278156;19;20381;-61
2022/07/27 22:55:08;;;;;;;2.00;0.70;;;;;;;14.92;97.47;98637.50;15278193;19;20039;-61
2022/07/27 23:00:14;;;;;;;4.43;0.80;;;;;;;14.72;100.00;98637.16;15268728;19;20033;-61
2022/07/27 23:05:20;;;;;;;2.22;0.80;;;;;;;14.63;100.00;98639.09;15277413;19;20014;-61
2022/07/27 23:15:46;;;;;;;3.80;0.73;;;;;;;14.41;100.00;98649.75;15269607;19;20022;-61
2022/07/27 23:20:51;;;;;;;5.93;0.90;;;;;;;14.30;100.00;98642.03;15275724;19;20011;-62
2022/07/27 23:25:59;;;;;;;2.75;0.80;;;;;;;14.18;100.00;98645.16;15276444;19;20014;-62
2022/07/27 23:31:04;;;;;;;4.93;0.80;;;;;;;14.07;100.00;98639.31;15271425;19;20010;-61
2022/07/27 23:36:10;;;;;;;3.55;0.70;;;;;;;13.98;100.00;98633.09;15275616;19;20014;-61
2022/07/27 23:41:18;;;;;;;7.63;1.00;;;;;;;13.91;100.00;98626.72;15281765;19;20038;-61
2022/07/27 23:46:23;;;;;;;4.43;0.85;;;;;;;13.78;100.00;98628.13;15286257;19;20014;-63
2022/07/27 23:51:28;;;;;;;3.22;0.80;;;;;;;13.65;100.00;98633.25;15287796;19;20031;-64
2022/07/27 23:56:36;;;;;;;3.75;0.70;;;;;;;13.55;100.00;98631.63;15286421;19;20015;-64
